createdAt,value
2017-11-08T00:00:25.386Z,0
2017-11-08T00:01:26.795Z,0
2017-11-08T00:02:28.203Z,0
2017-11-08T00:03:29.617Z,0
2017-11-08T00:04:31.035Z,0
2017-11-08T00:05:32.455Z,0
2017-11-08T00:06:33.880Z,0
2017-11-08T00:07:35.306Z,0
2017-11-08T00:08:36.718Z,0
2017-11-08T00:09:38.139Z,0
2017-11-08T00:10:39.558Z,0
2017-11-08T00:11:40.985Z,0
2017-11-08T00:12:42.389Z,0
2017-11-08T00:13:43.798Z,0
2017-11-08T00:14:45.219Z,0
2017-11-08T00:15:46.635Z,0
2017-11-08T00:16:48.052Z,0
2017-11-08T00:17:49.463Z,0
2017-11-08T00:18:50.884Z,0
2017-11-08T00:19:52.299Z,0
2017-11-08T00:20:53.712Z,0
2017-11-08T00:21:55.132Z,0
2017-11-08T00:22:56.556Z,0
2017-11-08T00:23:57.970Z,0
2017-11-08T00:24:59.384Z,0
2017-11-08T00:26:00.805Z,0
2017-11-08T00:27:02.224Z,0
2017-11-08T00:28:03.648Z,0
2017-11-08T00:29:05.062Z,0
2017-11-08T00:30:06.475Z,0
2017-11-08T00:31:07.901Z,0
2017-11-08T00:32:09.315Z,0
2017-11-08T00:33:10.732Z,0
2017-11-08T00:34:12.153Z,0
2017-11-08T00:35:13.565Z,0
2017-11-08T00:36:14.980Z,0
2017-11-08T00:37:16.384Z,0
2017-11-08T00:38:17.804Z,0
2017-11-08T00:39:19.223Z,0
2017-11-08T00:40:20.637Z,0
2017-11-08T00:41:22.052Z,0
2017-11-08T00:42:23.462Z,0
2017-11-08T00:43:24.874Z,0
2017-11-08T00:44:26.293Z,0
2017-11-08T00:45:27.709Z,0
2017-11-08T00:46:29.138Z,0
2017-11-08T00:47:30.548Z,0
2017-11-08T00:48:31.962Z,0
2017-11-08T00:49:33.384Z,0
2017-11-08T00:50:34.788Z,0
2017-11-08T00:51:36.204Z,0
2017-11-08T00:52:37.606Z,0
2017-11-08T00:53:39.027Z,0
2017-11-08T00:54:40.433Z,0
2017-11-08T00:55:41.847Z,0
2017-11-08T00:56:43.265Z,0
2017-11-08T00:57:44.689Z,0
2017-11-08T00:58:46.094Z,0
2017-11-08T00:59:47.517Z,0
2017-11-08T01:00:48.929Z,0
2017-11-08T01:01:50.338Z,0
2017-11-08T01:02:51.755Z,0
2017-11-08T01:03:53.169Z,0
2017-11-08T01:04:54.582Z,0
2017-11-08T01:05:55.992Z,0
2017-11-08T01:06:57.404Z,0
2017-11-08T01:07:58.827Z,0
2017-11-08T01:09:00.240Z,0
2017-11-08T01:10:01.666Z,0
2017-11-08T01:11:03.086Z,0
2017-11-08T01:12:04.501Z,0
2017-11-08T01:13:05.916Z,0
2017-11-08T01:14:07.337Z,0
2017-11-08T01:15:08.758Z,0
2017-11-08T01:16:10.170Z,0
2017-11-08T01:17:11.578Z,0
2017-11-08T01:18:12.998Z,0
2017-11-08T01:19:14.422Z,0
2017-11-08T01:20:15.844Z,0
2017-11-08T01:21:17.255Z,0
2017-11-08T01:22:18.677Z,0
2017-11-08T01:23:20.084Z,0
2017-11-08T01:24:21.489Z,0
2017-11-08T01:25:22.904Z,0
2017-11-08T01:26:24.327Z,0
2017-11-08T01:27:25.757Z,0
2017-11-08T01:28:27.172Z,0
2017-11-08T01:29:28.580Z,0
2017-11-08T01:30:29.989Z,0
2017-11-08T01:31:31.400Z,0
2017-11-08T01:32:32.810Z,0
2017-11-08T01:33:34.223Z,0
2017-11-08T01:34:35.634Z,0
2017-11-08T01:35:37.057Z,0
2017-11-08T01:36:38.466Z,0
2017-11-08T01:37:39.889Z,0
2017-11-08T01:38:41.296Z,0
2017-11-08T01:39:42.720Z,0
2017-11-08T01:40:44.132Z,0
2017-11-08T01:41:45.546Z,0
2017-11-08T01:42:46.959Z,0
2017-11-08T01:43:48.381Z,0
2017-11-08T01:44:49.792Z,0
2017-11-08T01:45:51.205Z,0
2017-11-08T01:46:52.721Z,0
2017-11-08T01:47:54.130Z,0
2017-11-08T01:48:55.546Z,0
2017-11-08T01:49:56.971Z,0
2017-11-08T01:50:58.383Z,0
2017-11-08T01:51:59.787Z,0
2017-11-08T01:53:01.204Z,0
2017-11-08T01:54:02.724Z,0
2017-11-08T01:55:04.142Z,0
2017-11-08T01:56:05.555Z,0
2017-11-08T01:57:06.983Z,0
2017-11-08T01:58:08.396Z,0
2017-11-08T01:59:09.806Z,0
2017-11-08T02:00:11.221Z,0
2017-11-08T02:01:12.634Z,0
2017-11-08T02:02:14.047Z,0
2017-11-08T02:03:15.463Z,0
2017-11-08T02:04:16.871Z,0
2017-11-08T02:05:18.280Z,0
2017-11-08T02:06:19.732Z,0
2017-11-08T02:07:21.149Z,0
2017-11-08T02:08:22.572Z,0
2017-11-08T02:09:23.997Z,0
2017-11-08T02:10:25.424Z,0
2017-11-08T02:11:26.842Z,0
2017-11-08T02:12:28.255Z,0
2017-11-08T02:13:29.671Z,0
2017-11-08T02:14:31.089Z,0
2017-11-08T02:15:32.505Z,0
2017-11-08T02:16:33.918Z,0
2017-11-08T02:17:35.332Z,0
2017-11-08T02:18:36.749Z,0
2017-11-08T02:19:38.260Z,0
2017-11-08T02:20:39.682Z,0
2017-11-08T02:21:41.096Z,0
2017-11-08T02:22:42.510Z,0
2017-11-08T02:23:43.920Z,0
2017-11-08T02:24:45.332Z,0
2017-11-08T02:25:46.745Z,0
2017-11-08T02:26:48.167Z,0
2017-11-08T02:27:49.692Z,0
2017-11-08T02:28:51.114Z,0
2017-11-08T02:29:52.532Z,0
2017-11-08T02:30:53.942Z,0
2017-11-08T02:31:55.356Z,0
2017-11-08T02:32:56.768Z,0
2017-11-08T02:33:58.186Z,0
2017-11-08T02:34:59.604Z,0
2017-11-08T02:36:01.022Z,0
2017-11-08T02:37:02.434Z,0
2017-11-08T02:38:03.838Z,0
2017-11-08T02:39:05.255Z,0
2017-11-08T02:40:06.672Z,0
2017-11-08T02:41:08.085Z,0
2017-11-08T02:42:09.499Z,0
2017-11-08T02:43:10.918Z,0
2017-11-08T02:44:12.334Z,0
2017-11-08T02:45:13.749Z,0
2017-11-08T02:46:15.164Z,0
2017-11-08T02:47:16.578Z,0
2017-11-08T02:48:17.998Z,0
2017-11-08T02:49:19.412Z,0
2017-11-08T02:50:20.793Z,0
2017-11-08T02:51:22.218Z,0
2017-11-08T02:52:23.632Z,0
2017-11-08T02:53:25.048Z,0
2017-11-08T02:54:26.460Z,0
2017-11-08T02:55:27.884Z,0
2017-11-08T02:56:29.293Z,0
2017-11-08T02:57:30.768Z,0
2017-11-08T02:58:32.182Z,0
2017-11-08T02:59:33.595Z,0
2017-11-08T03:00:35.012Z,0
2017-11-08T03:01:36.421Z,0
2017-11-08T03:02:37.832Z,0
2017-11-08T03:03:39.251Z,0
2017-11-08T03:04:40.665Z,0
2017-11-08T03:05:42.082Z,0
2017-11-08T03:06:43.496Z,0
2017-11-08T03:07:44.914Z,0
2017-11-08T03:08:46.341Z,0
2017-11-08T03:09:47.750Z,0
2017-11-08T03:10:49.159Z,0
2017-11-08T03:11:50.573Z,0
2017-11-08T03:12:51.983Z,0
2017-11-08T03:13:53.395Z,0
2017-11-08T03:14:54.803Z,0
2017-11-08T03:15:56.225Z,0
2017-11-08T03:16:57.729Z,0
2017-11-08T03:17:59.152Z,0
2017-11-08T03:19:00.560Z,0
2017-11-08T03:20:01.984Z,0
2017-11-08T03:21:03.390Z,0
2017-11-08T03:22:04.803Z,0
2017-11-08T03:23:06.217Z,0
2017-11-08T03:24:07.636Z,0
2017-11-08T03:25:09.052Z,0
2017-11-08T03:26:10.423Z,0
2017-11-08T03:27:11.838Z,0
2017-11-08T03:28:13.254Z,0
2017-11-08T03:29:14.678Z,20
2017-11-08T03:30:16.095Z,20
2017-11-08T03:31:17.514Z,16
2017-11-08T03:32:18.937Z,16
2017-11-08T03:33:20.350Z,16
2017-11-08T03:34:21.765Z,16
2017-11-08T03:35:23.187Z,16
2017-11-08T03:36:24.594Z,16
2017-11-08T03:37:26.005Z,16
2017-11-08T03:38:27.424Z,16
2017-11-08T03:39:28.837Z,12
2017-11-08T03:40:30.262Z,12
2017-11-08T03:41:31.674Z,12
2017-11-08T03:42:33.096Z,12
2017-11-08T03:43:34.507Z,12
2017-11-08T03:44:35.920Z,12
2017-11-08T03:45:37.335Z,12
2017-11-08T03:46:38.748Z,16
2017-11-08T03:47:40.239Z,12
2017-11-08T03:48:41.652Z,16
2017-11-08T03:49:43.080Z,16
2017-11-08T03:50:44.496Z,16
2017-11-08T03:51:45.905Z,16
2017-11-08T03:52:47.332Z,16
2017-11-08T03:53:48.746Z,16
2017-11-08T03:54:50.286Z,16
2017-11-08T03:55:51.708Z,16
2017-11-08T03:56:53.125Z,16
2017-11-08T03:57:54.534Z,16
2017-11-08T03:58:55.945Z,16
2017-11-08T03:59:57.360Z,12
2017-11-08T04:00:58.734Z,12
2017-11-08T04:02:00.153Z,12
2017-11-08T04:03:01.574Z,12
2017-11-08T04:04:02.993Z,12
2017-11-08T04:05:04.403Z,12
2017-11-08T04:06:05.823Z,12
2017-11-08T04:07:07.327Z,12
2017-11-08T04:08:08.744Z,12
2017-11-08T04:09:10.163Z,12
2017-11-08T04:10:11.578Z,12
2017-11-08T04:11:12.999Z,12
2017-11-08T04:12:14.416Z,12
2017-11-08T04:13:15.834Z,12
2017-11-08T04:14:17.250Z,12
2017-11-08T04:15:18.664Z,16
2017-11-08T04:16:20.043Z,12
2017-11-08T04:17:21.453Z,12
2017-11-08T04:18:22.868Z,12
2017-11-08T04:19:24.287Z,12
2017-11-08T04:20:25.816Z,12
2017-11-08T04:21:27.235Z,16
2017-11-08T04:22:28.651Z,12
2017-11-08T04:23:30.128Z,12
2017-11-08T04:24:31.561Z,12
2017-11-08T04:25:32.987Z,12
2017-11-08T04:26:34.398Z,16
2017-11-08T04:27:35.821Z,12
2017-11-08T04:28:37.232Z,12
2017-11-08T04:29:38.656Z,16
2017-11-08T04:30:40.076Z,12
2017-11-08T04:31:41.493Z,16
2017-11-08T04:32:42.901Z,12
2017-11-08T04:33:44.313Z,12
2017-11-08T04:34:45.692Z,12
2017-11-08T04:35:47.108Z,12
2017-11-08T04:36:48.526Z,12
2017-11-08T04:37:49.942Z,12
2017-11-08T04:38:51.356Z,12
2017-11-08T04:39:52.864Z,12
2017-11-08T04:40:54.277Z,12
2017-11-08T04:41:55.723Z,12
2017-11-08T04:42:57.114Z,12
2017-11-08T04:43:58.525Z,12
2017-11-08T04:44:59.934Z,12
2017-11-08T04:46:01.358Z,12
2017-11-08T04:47:02.778Z,12
2017-11-08T04:48:04.198Z,12
2017-11-08T04:49:05.615Z,12
2017-11-08T04:50:07.037Z,0
2017-11-08T04:51:08.462Z,0
2017-11-08T04:52:09.872Z,0
2017-11-08T04:53:11.289Z,0
2017-11-08T04:54:12.705Z,0
2017-11-08T04:55:14.137Z,0
2017-11-08T04:56:15.546Z,0
2017-11-08T04:57:16.962Z,0
2017-11-08T04:58:18.378Z,0
2017-11-08T04:59:19.801Z,0
2017-11-08T05:00:21.212Z,0
2017-11-08T05:01:22.620Z,0
2017-11-08T05:02:24.050Z,0
2017-11-08T05:03:25.462Z,0
2017-11-08T05:04:26.886Z,0
2017-11-08T05:05:28.377Z,0
2017-11-08T05:06:29.794Z,0
2017-11-08T05:07:31.207Z,0
2017-11-08T05:08:33.974Z,0
2017-11-08T05:09:35.393Z,0
2017-11-08T05:10:36.808Z,0
2017-11-08T05:11:38.225Z,0
2017-11-08T05:12:39.643Z,0
2017-11-08T05:13:41.073Z,0
2017-11-08T05:14:42.483Z,0
2017-11-08T05:15:43.896Z,0
2017-11-08T05:16:45.309Z,0
2017-11-08T05:17:46.725Z,0
2017-11-08T05:18:48.136Z,0
2017-11-08T05:19:49.556Z,0
2017-11-08T05:20:50.975Z,0
2017-11-08T05:21:52.391Z,0
2017-11-08T05:22:53.814Z,0
2017-11-08T05:23:55.222Z,0
2017-11-08T05:24:56.642Z,0
2017-11-08T05:25:58.053Z,0
2017-11-08T05:26:59.476Z,0
2017-11-08T05:28:00.892Z,0
2017-11-08T05:29:02.308Z,0
2017-11-08T05:30:03.715Z,0
2017-11-08T05:31:05.140Z,0
2017-11-08T05:32:06.555Z,0
2017-11-08T05:33:07.971Z,0
2017-11-08T05:34:09.387Z,0
2017-11-08T05:35:10.808Z,0
2017-11-08T05:36:12.224Z,0
2017-11-08T05:37:13.641Z,0
2017-11-08T05:38:15.062Z,0
2017-11-08T05:39:16.486Z,0
2017-11-08T05:40:17.911Z,0
2017-11-08T05:41:19.325Z,0
2017-11-08T05:42:20.747Z,0
2017-11-08T05:43:22.165Z,0
2017-11-08T05:44:23.574Z,0
2017-11-08T05:45:24.987Z,0
2017-11-08T05:46:26.403Z,0
2017-11-08T05:47:27.814Z,0
2017-11-08T05:48:29.226Z,0
2017-11-08T05:49:30.644Z,0
2017-11-08T05:50:32.052Z,0
2017-11-08T05:51:33.479Z,0
2017-11-08T05:52:34.888Z,0
2017-11-08T05:53:36.296Z,0
2017-11-08T05:54:37.704Z,0
2017-11-08T05:55:39.118Z,0
2017-11-08T05:56:40.531Z,0
2017-11-08T05:57:41.942Z,0
2017-11-08T05:58:43.352Z,0
2017-11-08T05:59:44.764Z,0
2017-11-08T06:00:46.172Z,0
2017-11-08T06:01:47.583Z,0
2017-11-08T06:02:48.992Z,0
2017-11-08T06:03:50.403Z,0
2017-11-08T06:04:51.816Z,0
2017-11-08T06:05:53.227Z,0
2017-11-08T06:06:54.649Z,0
2017-11-08T06:07:56.063Z,0
2017-11-08T06:08:57.474Z,0
2017-11-08T06:09:58.899Z,0
2017-11-08T06:11:00.305Z,0
2017-11-08T06:12:01.724Z,0
2017-11-08T06:13:03.142Z,0
2017-11-08T06:14:04.556Z,0
2017-11-08T06:15:05.976Z,0
2017-11-08T06:16:07.390Z,0
2017-11-08T06:17:08.799Z,0
2017-11-08T06:18:10.218Z,0
2017-11-08T06:19:11.647Z,0
2017-11-08T06:20:13.065Z,0
2017-11-08T06:21:14.485Z,0
2017-11-08T06:22:15.900Z,0
2017-11-08T06:23:17.318Z,4
2017-11-08T06:24:18.730Z,4
2017-11-08T06:25:20.149Z,4
2017-11-08T06:26:21.522Z,0
2017-11-08T06:27:22.940Z,0
2017-11-08T06:28:24.366Z,4
2017-11-08T06:29:25.773Z,4
2017-11-08T06:30:27.183Z,4
2017-11-08T06:31:28.618Z,0
2017-11-08T06:32:30.030Z,4
2017-11-08T06:33:31.442Z,4
2017-11-08T06:34:32.864Z,4
2017-11-08T06:35:34.275Z,8
2017-11-08T06:36:35.686Z,8
2017-11-08T06:37:37.106Z,4
2017-11-08T06:38:38.526Z,8
2017-11-08T06:39:39.945Z,8
2017-11-08T06:40:41.357Z,8
2017-11-08T06:41:42.772Z,8
2017-11-08T06:42:44.184Z,12
2017-11-08T06:43:45.604Z,8
2017-11-08T06:44:47.027Z,12
2017-11-08T06:45:48.442Z,8
2017-11-08T06:46:49.854Z,12
2017-11-08T06:47:51.271Z,12
2017-11-08T06:48:52.691Z,16
2017-11-08T06:49:54.105Z,12
2017-11-08T06:50:55.516Z,16
2017-11-08T06:51:56.938Z,16
2017-11-08T06:52:58.351Z,20
2017-11-08T06:53:59.767Z,20
2017-11-08T06:55:01.197Z,24
2017-11-08T06:56:02.610Z,28
2017-11-08T06:57:04.026Z,28
2017-11-08T06:58:05.440Z,28
2017-11-08T06:59:06.848Z,32
2017-11-08T07:00:08.270Z,32
2017-11-08T07:01:09.683Z,36
2017-11-08T07:02:11.082Z,36
2017-11-08T07:03:12.497Z,40
2017-11-08T07:04:13.904Z,40
2017-11-08T07:05:15.321Z,40
2017-11-08T07:06:16.737Z,36
2017-11-08T07:07:18.112Z,40
2017-11-08T07:08:19.483Z,40
2017-11-08T07:09:20.868Z,40
2017-11-08T07:10:22.284Z,36
2017-11-08T07:11:23.695Z,36
2017-11-08T07:12:25.108Z,40
2017-11-08T07:13:26.482Z,36
2017-11-08T07:14:27.904Z,36
2017-11-08T07:15:29.310Z,36
2017-11-08T07:16:30.727Z,40
2017-11-08T07:17:32.130Z,44
2017-11-08T07:18:33.545Z,44
2017-11-08T07:19:34.973Z,44
2017-11-08T07:20:36.392Z,40
2017-11-08T07:21:37.808Z,40
2017-11-08T07:22:39.221Z,40
2017-11-08T07:23:40.661Z,40
2017-11-08T07:24:42.074Z,44
2017-11-08T07:25:43.502Z,48
2017-11-08T07:26:44.924Z,52
2017-11-08T07:27:46.337Z,56
2017-11-08T07:28:47.763Z,64
2017-11-08T07:29:49.178Z,72
2017-11-08T07:30:50.596Z,76
2017-11-08T07:31:52.005Z,76
2017-11-08T07:32:53.417Z,84
2017-11-08T07:33:54.842Z,84
2017-11-08T07:34:56.247Z,84
2017-11-08T07:35:57.753Z,88
2017-11-08T07:36:59.169Z,88
2017-11-08T07:38:00.585Z,88
2017-11-08T07:39:02.005Z,92
2017-11-08T07:40:03.433Z,96
2017-11-08T07:41:04.851Z,92
2017-11-08T07:42:06.269Z,96
2017-11-08T07:43:07.688Z,92
2017-11-08T07:44:09.111Z,88
2017-11-08T07:45:10.522Z,88
2017-11-08T07:46:11.937Z,84
2017-11-08T07:47:13.353Z,88
2017-11-08T07:48:14.769Z,88
2017-11-08T07:49:16.192Z,88
2017-11-08T07:50:17.617Z,88
2017-11-08T07:51:19.040Z,88
2017-11-08T07:52:20.456Z,92
2017-11-08T07:53:21.869Z,88
2017-11-08T07:54:23.285Z,92
2017-11-08T07:55:24.703Z,92
2017-11-08T07:56:26.115Z,88
2017-11-08T07:57:27.551Z,84
2017-11-08T07:58:28.970Z,84
2017-11-08T07:59:30.389Z,84
2017-11-08T08:00:31.808Z,96
2017-11-08T08:01:33.216Z,104
2017-11-08T08:02:34.638Z,100
2017-11-08T08:03:36.060Z,96
2017-11-08T08:04:37.486Z,96
2017-11-08T08:05:38.901Z,108
2017-11-08T08:06:40.315Z,112
2017-11-08T08:07:41.726Z,112
2017-11-08T08:08:43.145Z,104
2017-11-08T08:09:46.054Z,100
2017-11-08T08:10:47.590Z,100
2017-11-08T08:11:48.997Z,100
2017-11-08T08:12:50.375Z,104
2017-11-08T08:13:51.795Z,108
2017-11-08T08:14:53.216Z,104
2017-11-08T08:15:54.643Z,104
2017-11-08T08:16:56.060Z,108
2017-11-08T08:17:57.473Z,104
2017-11-08T08:18:58.890Z,104
2017-11-08T08:20:00.311Z,108
2017-11-08T08:21:01.743Z,108
2017-11-08T08:22:03.164Z,104
2017-11-08T08:23:04.578Z,108
2017-11-08T08:24:06.006Z,104
2017-11-08T08:25:07.423Z,100
2017-11-08T08:26:08.835Z,96
2017-11-08T08:27:10.254Z,100
2017-11-08T08:28:11.675Z,104
2017-11-08T08:29:13.096Z,112
2017-11-08T08:30:14.513Z,120
2017-11-08T08:31:15.935Z,132
2017-11-08T08:32:17.354Z,136
2017-11-08T08:33:18.773Z,140
2017-11-08T08:34:20.189Z,136
2017-11-08T08:35:21.606Z,132
2017-11-08T08:36:23.026Z,136
2017-11-08T08:37:24.444Z,136
2017-11-08T08:38:25.866Z,144
2017-11-08T08:39:27.283Z,148
2017-11-08T08:40:28.713Z,156
2017-11-08T08:41:30.129Z,168
2017-11-08T08:42:31.540Z,180
2017-11-08T08:43:32.953Z,176
2017-11-08T08:44:34.367Z,168
2017-11-08T08:45:35.788Z,160
2017-11-08T08:46:37.198Z,156
2017-11-08T08:47:38.618Z,148
2017-11-08T08:48:40.037Z,148
2017-11-08T08:49:41.523Z,152
2017-11-08T08:50:42.942Z,148
2017-11-08T08:51:44.353Z,148
2017-11-08T08:52:45.786Z,148
2017-11-08T08:53:47.203Z,152
2017-11-08T08:54:48.623Z,148
2017-11-08T08:55:50.045Z,152
2017-11-08T08:56:51.548Z,156
2017-11-08T08:57:52.960Z,160
2017-11-08T08:58:54.373Z,160
2017-11-08T08:59:55.790Z,156
2017-11-08T09:00:57.203Z,148
2017-11-08T09:01:58.632Z,140
2017-11-08T09:03:00.047Z,136
2017-11-08T09:04:01.469Z,144
2017-11-08T09:05:02.900Z,148
2017-11-08T09:06:04.307Z,144
2017-11-08T09:07:05.720Z,152
2017-11-08T09:08:07.135Z,160
2017-11-08T09:09:09.500Z,160
2017-11-08T09:10:10.937Z,144
2017-11-08T09:11:12.349Z,144
2017-11-08T09:12:13.767Z,156
2017-11-08T09:13:15.274Z,168
2017-11-08T09:14:16.687Z,172
2017-11-08T09:15:18.101Z,156
2017-11-08T09:16:19.530Z,132
2017-11-08T09:17:20.948Z,124
2017-11-08T09:18:22.356Z,140
2017-11-08T09:19:23.775Z,160
2017-11-08T09:20:25.189Z,180
2017-11-08T09:21:26.605Z,184
2017-11-08T09:22:28.024Z,184
2017-11-08T09:23:29.437Z,176
2017-11-08T09:24:30.852Z,152
2017-11-08T09:25:32.266Z,148
2017-11-08T09:26:33.692Z,140
2017-11-08T09:27:35.123Z,128
2017-11-08T09:28:36.546Z,112
2017-11-08T09:29:37.957Z,120
2017-11-08T09:30:39.376Z,144
2017-11-08T09:31:40.792Z,160
2017-11-08T09:32:42.211Z,172
2017-11-08T09:33:43.629Z,168
2017-11-08T09:34:45.056Z,156
2017-11-08T09:35:46.476Z,144
2017-11-08T09:36:47.890Z,156
2017-11-08T09:37:49.307Z,156
2017-11-08T09:38:50.717Z,160
2017-11-08T09:39:52.142Z,168
2017-11-08T09:40:53.568Z,196
2017-11-08T09:41:54.982Z,216
2017-11-08T09:42:56.395Z,204
2017-11-08T09:43:57.815Z,200
2017-11-08T09:44:59.228Z,204
2017-11-08T09:46:00.643Z,208
2017-11-08T09:47:02.058Z,224
2017-11-08T09:48:03.476Z,224
2017-11-08T09:49:04.895Z,208
2017-11-08T09:50:06.318Z,212
2017-11-08T09:51:07.725Z,216
2017-11-08T09:52:09.171Z,228
2017-11-08T09:53:10.562Z,252
2017-11-08T09:54:11.965Z,248
2017-11-08T09:55:13.387Z,232
2017-11-08T09:56:15.495Z,232
2017-11-08T09:57:16.931Z,224
2017-11-08T09:58:18.429Z,208
2017-11-08T09:59:19.845Z,204
2017-11-08T10:00:21.272Z,204
2017-11-08T10:01:22.693Z,212
2017-11-08T10:02:24.105Z,260
2017-11-08T10:03:25.520Z,268
2017-11-08T10:04:26.943Z,236
2017-11-08T10:05:28.483Z,252
2017-11-08T10:06:29.944Z,220
2017-11-08T10:07:31.329Z,204
2017-11-08T10:08:32.758Z,216
2017-11-08T10:09:34.260Z,236
2017-11-08T10:10:35.604Z,284
2017-11-08T10:11:37.054Z,320
2017-11-08T10:12:38.501Z,328
2017-11-08T10:13:39.921Z,324
2017-11-08T10:14:41.358Z,328
2017-11-08T10:15:42.752Z,336
2017-11-08T10:16:44.172Z,308
2017-11-08T10:17:45.595Z,296
2017-11-08T10:18:47.062Z,304
2017-11-08T10:19:48.460Z,328
2017-11-08T10:20:49.881Z,320
2017-11-08T10:21:51.292Z,280
2017-11-08T10:22:52.706Z,244
2017-11-08T10:23:54.124Z,196
2017-11-08T10:24:55.538Z,196
2017-11-08T10:25:56.923Z,184
2017-11-08T10:26:58.340Z,196
2017-11-08T10:27:59.796Z,220
2017-11-08T10:29:01.210Z,224
2017-11-08T10:30:02.639Z,240
2017-11-08T10:31:04.067Z,248
2017-11-08T10:32:05.477Z,272
2017-11-08T10:33:06.898Z,276
2017-11-08T10:34:08.324Z,268
2017-11-08T10:35:09.733Z,272
2017-11-08T10:36:11.158Z,284
2017-11-08T10:37:12.578Z,324
2017-11-08T10:38:14.117Z,320
2017-11-08T10:39:15.543Z,304
2017-11-08T10:40:16.964Z,268
2017-11-08T10:41:18.375Z,208
2017-11-08T10:42:19.755Z,156
2017-11-08T10:43:21.171Z,144
2017-11-08T10:44:22.584Z,132
2017-11-08T10:45:23.999Z,112
2017-11-08T10:46:25.421Z,112
2017-11-08T10:47:26.864Z,124
2017-11-08T10:48:28.280Z,148
2017-11-08T10:49:29.699Z,192
2017-11-08T10:50:31.128Z,232
2017-11-08T10:51:32.551Z,256
2017-11-08T10:52:33.972Z,272
2017-11-08T10:53:35.390Z,280
2017-11-08T10:54:36.808Z,296
2017-11-08T10:55:38.224Z,304
2017-11-08T10:56:39.640Z,280
2017-11-08T10:57:41.056Z,252
2017-11-08T10:58:42.477Z,248
2017-11-08T10:59:43.891Z,248
2017-11-08T11:00:45.325Z,252
2017-11-08T11:01:46.752Z,256
2017-11-08T11:02:48.172Z,256
2017-11-08T11:03:49.593Z,248
2017-11-08T11:04:51.022Z,232
2017-11-08T11:05:52.435Z,236
2017-11-08T11:06:53.859Z,256
2017-11-08T11:07:55.277Z,272
2017-11-08T11:08:56.710Z,288
2017-11-08T11:09:58.128Z,292
2017-11-08T11:10:59.552Z,288
2017-11-08T11:12:00.973Z,288
2017-11-08T11:13:02.397Z,296
2017-11-08T11:14:03.817Z,292
2017-11-08T11:15:05.244Z,268
2017-11-08T11:16:06.652Z,252
2017-11-08T11:17:08.073Z,264
2017-11-08T11:18:09.498Z,288
2017-11-08T11:19:10.913Z,312
2017-11-08T11:20:12.333Z,316
2017-11-08T11:21:13.748Z,272
2017-11-08T11:22:15.173Z,228
2017-11-08T11:23:16.591Z,224
2017-11-08T11:24:18.004Z,228
2017-11-08T11:25:19.428Z,200
2017-11-08T11:26:20.846Z,184
2017-11-08T11:27:22.278Z,192
2017-11-08T11:28:23.655Z,200
2017-11-08T11:29:25.076Z,208
2017-11-08T11:30:26.600Z,212
2017-11-08T11:31:28.016Z,216
2017-11-08T11:32:29.444Z,240
2017-11-08T11:33:30.879Z,240
2017-11-08T11:34:32.301Z,240
2017-11-08T11:35:33.731Z,232
2017-11-08T11:36:35.146Z,240
2017-11-08T11:37:36.562Z,248
2017-11-08T11:38:37.981Z,216
2017-11-08T11:39:39.413Z,200
2017-11-08T11:40:40.838Z,204
2017-11-08T11:41:42.261Z,200
2017-11-08T11:42:43.754Z,204
2017-11-08T11:43:45.173Z,212
2017-11-08T11:44:46.589Z,224
2017-11-08T11:45:48.015Z,240
2017-11-08T11:46:49.443Z,284
2017-11-08T11:47:50.945Z,292
2017-11-08T11:48:52.368Z,276
2017-11-08T11:49:53.795Z,252
2017-11-08T11:50:55.277Z,248
2017-11-08T11:51:56.694Z,272
2017-11-08T11:52:58.115Z,280
2017-11-08T11:53:59.531Z,284
2017-11-08T11:55:00.957Z,268
2017-11-08T11:56:02.384Z,272
2017-11-08T11:57:03.812Z,296
2017-11-08T11:58:05.239Z,304
2017-11-08T11:59:06.649Z,316
2017-11-08T12:00:08.064Z,304
2017-11-08T12:01:09.479Z,284
2017-11-08T12:02:10.916Z,280
2017-11-08T12:03:12.332Z,300
2017-11-08T12:04:13.757Z,304
2017-11-08T12:05:15.183Z,288
2017-11-08T12:06:16.601Z,300
2017-11-08T12:07:18.007Z,308
2017-11-08T12:08:19.428Z,304
2017-11-08T12:09:20.875Z,300
2017-11-08T12:10:22.294Z,264
2017-11-08T12:11:23.722Z,248
2017-11-08T12:12:25.158Z,220
2017-11-08T12:13:26.582Z,200
2017-11-08T12:14:28.003Z,28
2017-11-08T12:15:29.421Z,248
2017-11-08T12:16:30.838Z,224
2017-11-08T12:17:32.264Z,204
2017-11-08T12:18:33.688Z,236
2017-11-08T12:19:35.111Z,228
2017-11-08T12:20:36.543Z,208
2017-11-08T12:21:37.963Z,204
2017-11-08T12:22:39.392Z,208
2017-11-08T12:23:40.816Z,208
2017-11-08T12:24:42.237Z,192
2017-11-08T12:25:43.662Z,188
2017-11-08T12:26:45.081Z,196
2017-11-08T12:27:46.505Z,192
2017-11-08T12:28:47.925Z,180
2017-11-08T12:29:49.337Z,172
2017-11-08T12:30:50.766Z,176
2017-11-08T12:31:52.188Z,176
2017-11-08T12:32:53.600Z,180
2017-11-08T12:33:55.014Z,204
2017-11-08T12:34:56.430Z,232
2017-11-08T12:35:57.853Z,236
2017-11-08T12:36:59.269Z,224
2017-11-08T12:38:00.699Z,224
2017-11-08T12:39:02.194Z,224
2017-11-08T12:40:03.617Z,224
2017-11-08T12:41:05.027Z,248
2017-11-08T12:42:06.448Z,256
2017-11-08T12:43:07.886Z,244
2017-11-08T12:44:09.301Z,232
2017-11-08T12:45:10.729Z,240
2017-11-08T12:46:12.141Z,248
2017-11-08T12:47:13.559Z,236
2017-11-08T12:48:14.976Z,228
2017-11-08T12:49:16.394Z,236
2017-11-08T12:50:17.820Z,256
2017-11-08T12:51:19.231Z,256
2017-11-08T12:52:20.653Z,284
2017-11-08T12:53:22.077Z,292
2017-11-08T12:54:23.491Z,280
2017-11-08T12:55:24.910Z,288
2017-11-08T12:56:26.420Z,292
2017-11-08T12:57:27.846Z,292
2017-11-08T12:58:29.260Z,292
2017-11-08T12:59:30.676Z,272
2017-11-08T13:00:32.094Z,272
2017-11-08T13:01:33.513Z,284
2017-11-08T13:02:34.945Z,272
2017-11-08T13:03:36.379Z,272
2017-11-08T13:04:37.799Z,288
2017-11-08T13:05:39.222Z,316
2017-11-08T13:06:40.638Z,300
2017-11-08T13:07:42.057Z,288
2017-11-08T13:08:43.491Z,272
2017-11-08T13:09:44.902Z,260
2017-11-08T13:10:46.321Z,284
2017-11-08T13:11:47.759Z,324
2017-11-08T13:12:49.193Z,332
2017-11-08T13:13:50.596Z,328
2017-11-08T13:14:52.017Z,308
2017-11-08T13:15:53.445Z,304
2017-11-08T13:16:54.867Z,316
2017-11-08T13:17:56.294Z,312
2017-11-08T13:18:57.712Z,288
2017-11-08T13:19:59.133Z,252
2017-11-08T13:21:00.545Z,216
2017-11-08T13:22:01.991Z,184
2017-11-08T13:23:03.456Z,168
2017-11-08T13:24:04.886Z,164
2017-11-08T13:25:06.325Z,156
2017-11-08T13:26:07.721Z,148
2017-11-08T13:27:09.144Z,148
2017-11-08T13:28:10.559Z,136
2017-11-08T13:29:11.989Z,132
2017-11-08T13:30:13.407Z,132
2017-11-08T13:31:14.826Z,128
2017-11-08T13:32:16.252Z,132
2017-11-08T13:33:17.670Z,132
2017-11-08T13:34:19.097Z,136
2017-11-08T13:35:20.519Z,144
2017-11-08T13:36:22.080Z,148
2017-11-08T13:37:23.493Z,136
2017-11-08T13:38:24.903Z,124
2017-11-08T13:39:26.328Z,124
2017-11-08T13:40:27.781Z,124
2017-11-08T13:41:29.196Z,124
2017-11-08T13:42:30.614Z,124
2017-11-08T13:43:32.157Z,132
2017-11-08T13:44:33.588Z,120
2017-11-08T13:45:35.008Z,112
2017-11-08T13:46:36.428Z,104
2017-11-08T13:47:37.851Z,96
2017-11-08T13:48:39.280Z,104
2017-11-08T13:49:40.731Z,120
2017-11-08T13:50:42.164Z,112
2017-11-08T13:51:43.582Z,100
2017-11-08T13:52:45.000Z,96
2017-11-08T13:53:46.425Z,104
2017-11-08T13:54:47.850Z,12
2017-11-08T13:55:49.275Z,12
2017-11-08T13:56:50.702Z,16
2017-11-08T13:57:52.113Z,12
2017-11-08T13:58:53.533Z,12
2017-11-08T13:59:54.951Z,12
2017-11-08T14:00:56.375Z,12
2017-11-08T14:01:57.791Z,12
2017-11-08T14:02:59.223Z,12
2017-11-08T14:04:00.641Z,16
2017-11-08T14:05:02.056Z,16
2017-11-08T14:06:03.476Z,12
2017-11-08T14:07:04.891Z,12
2017-11-08T14:08:06.356Z,12
2017-11-08T14:09:08.392Z,8
2017-11-08T14:10:09.812Z,8
2017-11-08T14:11:11.220Z,8
2017-11-08T14:12:12.641Z,8
2017-11-08T14:13:14.108Z,12
2017-11-08T14:14:15.533Z,12
2017-11-08T14:15:16.964Z,8
2017-11-08T14:16:18.379Z,12
2017-11-08T14:17:19.800Z,8
2017-11-08T14:18:21.224Z,8
2017-11-08T14:19:22.645Z,8
2017-11-08T14:20:24.087Z,8
2017-11-08T14:21:25.514Z,8
2017-11-08T14:22:26.930Z,4
2017-11-08T14:23:28.353Z,8
2017-11-08T14:24:29.759Z,8
2017-11-08T14:25:31.177Z,8
2017-11-08T14:26:32.607Z,8
2017-11-08T14:27:34.036Z,8
2017-11-08T14:28:35.455Z,8
2017-11-08T14:29:36.875Z,4
2017-11-08T14:30:38.285Z,4
2017-11-08T14:31:39.704Z,4
2017-11-08T14:33:03.919Z,4
2017-11-08T14:36:39.431Z,8
2017-11-08T14:38:12.917Z,4
2017-11-08T14:39:57.571Z,8